sensor_id;sensor_type;location;lat;lon;timestamp;P1;durP1;ratioP1;P2;durP2;ratioP2
57107;SDS011;42987;52.916;6.542;2023-07-31T00:00:27;7.15;;;5.70;;
57107;SDS011;42987;52.916;6.542;2023-07-31T00:02:52;7.20;;;4.68;;
57107;SDS011;42987;52.916;6.542;2023-07-31T00:05:19;7.88;;;5.40;;
57107;SDS011;42987;52.916;6.542;2023-07-31T00:07:44;9.35;;;6.53;;
57107;SDS011;42987;52.916;6.542;2023-07-31T00:10:10;6.35;;;5.22;;
57107;SDS011;42987;52.916;6.542;2023-07-31T00:12:37;7.97;;;5.68;;
57107;SDS011;42987;52.916;6.542;2023-07-31T00:15:04;6.97;;;5.32;;
57107;SDS011;42987;52.916;6.542;2023-07-31T00:17:31;8.18;;;6.30;;
57107;SDS011;42987;52.916;6.542;2023-07-31T00:19:56;6.93;;;5.30;;
57107;SDS011;42987;52.916;6.542;2023-07-31T00:22:22;7.60;;;5.82;;
57107;SDS011;42987;52.916;6.542;2023-07-31T00:24:48;8.38;;;5.63;;
57107;SDS011;42987;52.916;6.542;2023-07-31T00:27:14;7.28;;;5.65;;
57107;SDS011;42987;52.916;6.542;2023-07-31T00:29:40;7.25;;;6.05;;
57107;SDS011;42987;52.916;6.542;2023-07-31T00:32:06;8.45;;;6.38;;
57107;SDS011;42987;52.916;6.542;2023-07-31T00:34:34;7.55;;;6.18;;
57107;SDS011;42987;52.916;6.542;2023-07-31T00:37:00;9.55;;;8.02;;
57107;SDS011;42987;52.916;6.542;2023-07-31T00:39:26;8.05;;;6.20;;
57107;SDS011;42987;52.916;6.542;2023-07-31T00:41:52;6.78;;;6.03;;
57107;SDS011;42987;52.916;6.542;2023-07-31T00:44:18;8.25;;;6.43;;
57107;SDS011;42987;52.916;6.542;2023-07-31T00:46:44;8.10;;;6.05;;
57107;SDS011;42987;52.916;6.542;2023-07-31T00:49:10;7.55;;;6.25;;
57107;SDS011;42987;52.916;6.542;2023-07-31T00:51:36;8.60;;;6.70;;
57107;SDS011;42987;52.916;6.542;2023-07-31T00:54:05;6.88;;;5.80;;
57107;SDS011;42987;52.916;6.542;2023-07-31T00:56:31;7.82;;;5.03;;
57107;SDS011;42987;52.916;6.542;2023-07-31T00:58:58;6.10;;;5.10;;
57107;SDS011;42987;52.916;6.542;2023-07-31T01:01:23;6.65;;;4.60;;
57107;SDS011;42987;52.916;6.542;2023-07-31T01:03:50;6.18;;;4.65;;
57107;SDS011;42987;52.916;6.542;2023-07-31T01:09:20;5.32;;;3.80;;
57107;SDS011;42987;52.916;6.542;2023-07-31T01:12:12;5.68;;;4.35;;
57107;SDS011;42987;52.916;6.542;2023-07-31T01:17:05;4.78;;;3.60;;
57107;SDS011;42987;52.916;6.542;2023-07-31T01:19:31;6.32;;;3.38;;
57107;SDS011;42987;52.916;6.542;2023-07-31T01:24:54;5.22;;;3.97;;
57107;SDS011;42987;52.916;6.542;2023-07-31T01:27:41;5.30;;;2.63;;
57107;SDS011;42987;52.916;6.542;2023-07-31T01:30:15;3.63;;;2.47;;
57107;SDS011;42987;52.916;6.542;2023-07-31T01:35:12;3.63;;;2.15;;
57107;SDS011;42987;52.916;6.542;2023-07-31T01:37:38;2.92;;;2.13;;
57107;SDS011;42987;52.916;6.542;2023-07-31T01:40:04;4.38;;;2.28;;
57107;SDS011;42987;52.916;6.542;2023-07-31T01:42:31;5.22;;;3.08;;
57107;SDS011;42987;52.916;6.542;2023-07-31T01:44:57;2.30;;;1.70;;
57107;SDS011;42987;52.916;6.542;2023-07-31T01:47:22;7.43;;;3.33;;
57107;SDS011;42987;52.916;6.542;2023-07-31T01:49:49;5.03;;;2.10;;
57107;SDS011;42987;52.916;6.542;2023-07-31T01:52:14;2.90;;;2.15;;
57107;SDS011;42987;52.916;6.542;2023-07-31T01:54:40;2.88;;;1.85;;
57107;SDS011;42987;52.916;6.542;2023-07-31T01:57:06;5.03;;;2.50;;
57107;SDS011;42987;52.916;6.542;2023-07-31T01:59:34;4.80;;;2.13;;
57107;SDS011;42987;52.916;6.542;2023-07-31T02:02:00;5.00;;;2.85;;
57107;SDS011;42987;52.916;6.542;2023-07-31T02:04:26;5.65;;;2.75;;
57107;SDS011;42987;52.916;6.542;2023-07-31T02:06:52;2.92;;;2.10;;
57107;SDS011;42987;52.916;6.542;2023-07-31T02:09:18;2.80;;;1.80;;
57107;SDS011;42987;52.916;6.542;2023-07-31T02:11:44;3.08;;;2.30;;
57107;SDS011;42987;52.916;6.542;2023-07-31T02:14:12;2.20;;;1.70;;
57107;SDS011;42987;52.916;6.542;2023-07-31T02:16:38;5.00;;;2.70;;
57107;SDS011;42987;52.916;6.542;2023-07-31T02:19:04;3.63;;;2.33;;
57107;SDS011;42987;52.916;6.542;2023-07-31T02:21:30;3.05;;;2.55;;
57107;SDS011;42987;52.916;6.542;2023-07-31T02:23:55;3.30;;;2.20;;
57107;SDS011;42987;52.916;6.542;2023-07-31T02:26:21;2.38;;;1.67;;
57107;SDS011;42987;52.916;6.542;2023-07-31T02:28:47;4.28;;;2.40;;
57107;SDS011;42987;52.916;6.542;2023-07-31T02:31:12;2.58;;;2.05;;
57107;SDS011;42987;52.916;6.542;2023-07-31T02:33:38;3.88;;;2.40;;
57107;SDS011;42987;52.916;6.542;2023-07-31T02:36:04;2.45;;;1.70;;
57107;SDS011;42987;52.916;6.542;2023-07-31T02:38:30;2.88;;;1.80;;
57107;SDS011;42987;52.916;6.542;2023-07-31T02:40:55;1.88;;;1.35;;
57107;SDS011;42987;52.916;6.542;2023-07-31T02:43:24;1.70;;;1.42;;
57107;SDS011;42987;52.916;6.542;2023-07-31T02:45:53;3.70;;;1.60;;
57107;SDS011;42987;52.916;6.542;2023-07-31T02:48:19;1.85;;;1.58;;
57107;SDS011;42987;52.916;6.542;2023-07-31T02:50:45;2.05;;;1.50;;
57107;SDS011;42987;52.916;6.542;2023-07-31T02:53:12;2.08;;;1.65;;
57107;SDS011;42987;52.916;6.542;2023-07-31T02:55:38;2.45;;;2.08;;
57107;SDS011;42987;52.916;6.542;2023-07-31T02:58:04;2.53;;;1.85;;
57107;SDS011;42987;52.916;6.542;2023-07-31T03:00:29;3.10;;;2.15;;
57107;SDS011;42987;52.916;6.542;2023-07-31T03:02:55;2.58;;;2.10;;
57107;SDS011;42987;52.916;6.542;2023-07-31T03:05:21;4.05;;;2.20;;
57107;SDS011;42987;52.916;6.542;2023-07-31T03:07:47;2.95;;;2.00;;
57107;SDS011;42987;52.916;6.542;2023-07-31T03:10:12;2.63;;;1.50;;
57107;SDS011;42987;52.916;6.542;2023-07-31T03:12:38;4.60;;;2.20;;
57107;SDS011;42987;52.916;6.542;2023-07-31T03:15:05;2.90;;;2.38;;
57107;SDS011;42987;52.916;6.542;2023-07-31T03:17:38;4.00;;;2.00;;
57107;SDS011;42987;52.916;6.542;2023-07-31T03:20:03;3.80;;;2.28;;
57107;SDS011;42987;52.916;6.542;2023-07-31T03:22:29;3.30;;;2.13;;
57107;SDS011;42987;52.916;6.542;2023-07-31T03:24:55;5.38;;;2.53;;
57107;SDS011;42987;52.916;6.542;2023-07-31T03:27:21;5.15;;;1.73;;
57107;SDS011;42987;52.916;6.542;2023-07-31T03:29:47;6.68;;;1.92;;
57107;SDS011;42987;52.916;6.542;2023-07-31T03:32:14;4.70;;;1.52;;
57107;SDS011;42987;52.916;6.542;2023-07-31T03:34:40;2.22;;;1.10;;
57107;SDS011;42987;52.916;6.542;2023-07-31T03:37:06;3.33;;;1.17;;
57107;SDS011;42987;52.916;6.542;2023-07-31T03:39:34;1.85;;;1.10;;
57107;SDS011;42987;52.916;6.542;2023-07-31T03:42:00;2.85;;;1.38;;
57107;SDS011;42987;52.916;6.542;2023-07-31T03:44:26;1.75;;;1.13;;
57107;SDS011;42987;52.916;6.542;2023-07-31T03:46:51;3.30;;;1.30;;
57107;SDS011;42987;52.916;6.542;2023-07-31T03:49:17;2.17;;;1.33;;
57107;SDS011;42987;52.916;6.542;2023-07-31T03:51:43;2.30;;;1.10;;
57107;SDS011;42987;52.916;6.542;2023-07-31T03:54:09;2.88;;;0.95;;
57107;SDS011;42987;52.916;6.542;2023-07-31T03:56:35;2.53;;;1.15;;
57107;SDS011;42987;52.916;6.542;2023-07-31T03:59:01;2.67;;;1.23;;
57107;SDS011;42987;52.916;6.542;2023-07-31T04:01:26;2.75;;;1.52;;
57107;SDS011;42987;52.916;6.542;2023-07-31T04:03:52;2.10;;;1.02;;
57107;SDS011;42987;52.916;6.542;2023-07-31T04:06:18;2.40;;;1.10;;
57107;SDS011;42987;52.916;6.542;2023-07-31T04:08:44;3.45;;;1.30;;
57107;SDS011;42987;52.916;6.542;2023-07-31T04:11:13;2.28;;;1.02;;
57107;SDS011;42987;52.916;6.542;2023-07-31T04:13:38;1.88;;;0.98;;
57107;SDS011;42987;52.916;6.542;2023-07-31T04:16:04;3.63;;;1.20;;
57107;SDS011;42987;52.916;6.542;2023-07-31T04:18:30;2.22;;;1.00;;
57107;SDS011;42987;52.916;6.542;2023-07-31T04:20:57;2.78;;;1.30;;
57107;SDS011;42987;52.916;6.542;2023-07-31T04:23:26;1.58;;;1.10;;
57107;SDS011;42987;52.916;6.542;2023-07-31T04:25:52;3.22;;;1.95;;
57107;SDS011;42987;52.916;6.542;2023-07-31T04:28:18;2.97;;;2.10;;
57107;SDS011;42987;52.916;6.542;2023-07-31T04:30:43;2.22;;;1.40;;
57107;SDS011;42987;52.916;6.542;2023-07-31T04:33:09;3.63;;;1.60;;
57107;SDS011;42987;52.916;6.542;2023-07-31T04:35:35;4.75;;;1.58;;
57107;SDS011;42987;52.916;6.542;2023-07-31T04:38:01;2.58;;;1.40;;
57107;SDS011;42987;52.916;6.542;2023-07-31T04:40:27;3.30;;;2.05;;
57107;SDS011;42987;52.916;6.542;2023-07-31T04:42:52;2.75;;;1.45;;
57107;SDS011;42987;52.916;6.542;2023-07-31T04:45:18;2.42;;;1.70;;
57107;SDS011;42987;52.916;6.542;2023-07-31T04:47:44;5.18;;;2.47;;
57107;SDS011;42987;52.916;6.542;2023-07-31T04:50:10;4.00;;;2.50;;
57107;SDS011;42987;52.916;6.542;2023-07-31T04:52:36;17.20;;;4.43;;
57107;SDS011;42987;52.916;6.542;2023-07-31T04:55:02;11.15;;;4.05;;
57107;SDS011;42987;52.916;6.542;2023-07-31T04:57:31;8.15;;;3.20;;
57107;SDS011;42987;52.916;6.542;2023-07-31T04:59:56;20.05;;;5.97;;
57107;SDS011;42987;52.916;6.542;2023-07-31T05:02:22;8.82;;;4.72;;
57107;SDS011;42987;52.916;6.542;2023-07-31T05:04:49;10.02;;;5.82;;
57107;SDS011;42987;52.916;6.542;2023-07-31T05:07:15;15.75;;;7.13;;
57107;SDS011;42987;52.916;6.542;2023-07-31T05:09:42;24.13;;;10.00;;
57107;SDS011;42987;52.916;6.542;2023-07-31T05:12:08;18.77;;;9.43;;
57107;SDS011;42987;52.916;6.542;2023-07-31T05:14:33;24.80;;;10.82;;
57107;SDS011;42987;52.916;6.542;2023-07-31T05:16:59;21.88;;;10.05;;
57107;SDS011;42987;52.916;6.542;2023-07-31T05:19:25;22.98;;;10.13;;
57107;SDS011;42987;52.916;6.542;2023-07-31T05:21:50;20.58;;;9.65;;
57107;SDS011;42987;52.916;6.542;2023-07-31T05:24:16;19.33;;;9.18;;
57107;SDS011;42987;52.916;6.542;2023-07-31T05:26:42;26.33;;;10.10;;
57107;SDS011;42987;52.916;6.542;2023-07-31T05:29:08;24.17;;;10.30;;
57107;SDS011;42987;52.916;6.542;2023-07-31T05:31:34;39.22;;;12.82;;
57107;SDS011;42987;52.916;6.542;2023-07-31T05:33:59;26.52;;;11.65;;
57107;SDS011;42987;52.916;6.542;2023-07-31T05:36:25;23.92;;;10.48;;
57107;SDS011;42987;52.916;6.542;2023-07-31T05:38:51;33.75;;;13.13;;
57107;SDS011;42987;52.916;6.542;2023-07-31T05:41:17;25.17;;;12.20;;
57107;SDS011;42987;52.916;6.542;2023-07-31T05:43:43;27.73;;;11.95;;
57107;SDS011;42987;52.916;6.542;2023-07-31T05:46:09;27.33;;;11.50;;
57107;SDS011;42987;52.916;6.542;2023-07-31T05:48:35;25.42;;;11.55;;
57107;SDS011;42987;52.916;6.542;2023-07-31T05:51:01;25.88;;;10.93;;
57107;SDS011;42987;52.916;6.542;2023-07-31T05:53:27;23.83;;;10.82;;
57107;SDS011;42987;52.916;6.542;2023-07-31T05:55:53;33.50;;;12.52;;
57107;SDS011;42987;52.916;6.542;2023-07-31T05:58:19;24.85;;;11.18;;
57107;SDS011;42987;52.916;6.542;2023-07-31T06:00:44;29.98;;;12.43;;
57107;SDS011;42987;52.916;6.542;2023-07-31T06:03:10;42.78;;;13.65;;
57107;SDS011;42987;52.916;6.542;2023-07-31T06:05:36;25.40;;;11.38;;
57107;SDS011;42987;52.916;6.542;2023-07-31T06:08:02;38.05;;;13.60;;
57107;SDS011;42987;52.916;6.542;2023-07-31T06:10:27;29.85;;;11.95;;
57107;SDS011;42987;52.916;6.542;2023-07-31T06:12:53;23.77;;;11.27;;
57107;SDS011;42987;52.916;6.542;2023-07-31T06:15:22;28.45;;;12.07;;
57107;SDS011;42987;52.916;6.542;2023-07-31T06:17:48;29.08;;;11.77;;
57107;SDS011;42987;52.916;6.542;2023-07-31T06:20:14;32.72;;;12.23;;
57107;SDS011;42987;52.916;6.542;2023-07-31T06:22:39;25.08;;;10.85;;
57107;SDS011;42987;52.916;6.542;2023-07-31T06:25:05;23.23;;;10.07;;
57107;SDS011;42987;52.916;6.542;2023-07-31T06:27:31;23.15;;;10.80;;
57107;SDS011;42987;52.916;6.542;2023-07-31T06:29:57;25.42;;;10.68;;
57107;SDS011;42987;52.916;6.542;2023-07-31T06:32:22;21.60;;;10.00;;
57107;SDS011;42987;52.916;6.542;2023-07-31T06:34:48;23.98;;;11.98;;
57107;SDS011;42987;52.916;6.542;2023-07-31T06:37:14;23.23;;;11.55;;
57107;SDS011;42987;52.916;6.542;2023-07-31T06:39:40;23.52;;;11.80;;
57107;SDS011;42987;52.916;6.542;2023-07-31T06:42:06;24.17;;;11.40;;
57107;SDS011;42987;52.916;6.542;2023-07-31T06:44:32;27.20;;;12.43;;
57107;SDS011;42987;52.916;6.542;2023-07-31T06:46:57;28.60;;;12.77;;
57107;SDS011;42987;52.916;6.542;2023-07-31T06:49:23;28.17;;;11.70;;
57107;SDS011;42987;52.916;6.542;2023-07-31T06:51:54;29.92;;;12.95;;
57107;SDS011;42987;52.916;6.542;2023-07-31T06:54:20;28.33;;;13.45;;
57107;SDS011;42987;52.916;6.542;2023-07-31T06:56:46;36.58;;;14.70;;
57107;SDS011;42987;52.916;6.542;2023-07-31T06:59:12;34.60;;;14.65;;
57107;SDS011;42987;52.916;6.542;2023-07-31T07:01:38;31.60;;;14.73;;
57107;SDS011;42987;52.916;6.542;2023-07-31T07:04:03;26.20;;;13.48;;
57107;SDS011;42987;52.916;6.542;2023-07-31T07:06:29;27.05;;;13.73;;
57107;SDS011;42987;52.916;6.542;2023-07-31T07:08:55;32.65;;;14.55;;
57107;SDS011;42987;52.916;6.542;2023-07-31T07:11:21;24.75;;;12.30;;
57107;SDS011;42987;52.916;6.542;2023-07-31T07:13:46;20.77;;;11.73;;
57107;SDS011;42987;52.916;6.542;2023-07-31T07:16:12;17.45;;;10.00;;
57107;SDS011;42987;52.916;6.542;2023-07-31T07:18:38;19.35;;;9.70;;
57107;SDS011;42987;52.916;6.542;2023-07-31T07:21:03;14.25;;;8.73;;
57107;SDS011;42987;52.916;6.542;2023-07-31T07:23:29;13.25;;;8.00;;
57107;SDS011;42987;52.916;6.542;2023-07-31T07:25:55;13.85;;;7.63;;
57107;SDS011;42987;52.916;6.542;2023-07-31T07:28:21;11.48;;;7.13;;
57107;SDS011;42987;52.916;6.542;2023-07-31T07:30:50;11.30;;;6.88;;
57107;SDS011;42987;52.916;6.542;2023-07-31T07:33:18;11.02;;;6.07;;
57107;SDS011;42987;52.916;6.542;2023-07-31T07:35:44;8.88;;;5.45;;
57107;SDS011;42987;52.916;6.542;2023-07-31T07:38:10;11.48;;;6.68;;
57107;SDS011;42987;52.916;6.542;2023-07-31T07:40:39;16.80;;;8.75;;
57107;SDS011;42987;52.916;6.542;2023-07-31T07:43:05;15.35;;;7.28;;
57107;SDS011;42987;52.916;6.542;2023-07-31T07:45:31;10.80;;;6.28;;
57107;SDS011;42987;52.916;6.542;2023-07-31T07:47:57;12.88;;;7.45;;
57107;SDS011;42987;52.916;6.542;2023-07-31T07:50:24;10.05;;;6.03;;
57107;SDS011;42987;52.916;6.542;2023-07-31T07:52:50;11.05;;;5.57;;
57107;SDS011;42987;52.916;6.542;2023-07-31T07:55:15;10.32;;;4.82;;
57107;SDS011;42987;52.916;6.542;2023-07-31T07:57:41;11.77;;;6.05;;
57107;SDS011;42987;52.916;6.542;2023-07-31T08:00:09;8.30;;;5.10;;
57107;SDS011;42987;52.916;6.542;2023-07-31T08:02:40;7.88;;;4.75;;
57107;SDS011;42987;52.916;6.542;2023-07-31T08:05:06;8.30;;;4.32;;
57107;SDS011;42987;52.916;6.542;2023-07-31T08:07:31;7.22;;;4.93;;
57107;SDS011;42987;52.916;6.542;2023-07-31T08:09:58;9.32;;;4.90;;
57107;SDS011;42987;52.916;6.542;2023-07-31T08:12:24;7.72;;;4.75;;
57107;SDS011;42987;52.916;6.542;2023-07-31T08:14:50;6.95;;;4.35;;
57107;SDS011;42987;52.916;6.542;2023-07-31T08:17:16;7.10;;;4.05;;
57107;SDS011;42987;52.916;6.542;2023-07-31T08:19:42;6.32;;;4.05;;
57107;SDS011;42987;52.916;6.542;2023-07-31T08:22:09;7.15;;;4.18;;
57107;SDS011;42987;52.916;6.542;2023-07-31T08:24:34;9.45;;;5.10;;
57107;SDS011;42987;52.916;6.542;2023-07-31T08:27:00;6.40;;;3.75;;
57107;SDS011;42987;52.916;6.542;2023-07-31T08:29:26;6.00;;;3.80;;
57107;SDS011;42987;52.916;6.542;2023-07-31T08:31:52;5.95;;;3.08;;
57107;SDS011;42987;52.916;6.542;2023-07-31T08:34:17;4.90;;;3.33;;
57107;SDS011;42987;52.916;6.542;2023-07-31T08:36:44;6.72;;;3.47;;
57107;SDS011;42987;52.916;6.542;2023-07-31T08:39:09;5.03;;;2.90;;
57107;SDS011;42987;52.916;6.542;2023-07-31T08:41:38;6.10;;;3.80;;
57107;SDS011;42987;52.916;6.542;2023-07-31T08:44:04;5.25;;;3.90;;
57107;SDS011;42987;52.916;6.542;2023-07-31T08:46:32;5.03;;;3.50;;
57107;SDS011;42987;52.916;6.542;2023-07-31T08:48:58;5.53;;;4.03;;
57107;SDS011;42987;52.916;6.542;2023-07-31T08:51:24;7.22;;;3.50;;
57107;SDS011;42987;52.916;6.542;2023-07-31T08:53:52;4.03;;;2.90;;
57107;SDS011;42987;52.916;6.542;2023-07-31T08:56:18;4.80;;;3.28;;
57107;SDS011;42987;52.916;6.542;2023-07-31T08:58:44;6.28;;;3.60;;
57107;SDS011;42987;52.916;6.542;2023-07-31T09:01:12;5.07;;;3.10;;
57107;SDS011;42987;52.916;6.542;2023-07-31T09:03:40;5.03;;;3.55;;
57107;SDS011;42987;52.916;6.542;2023-07-31T09:06:06;3.83;;;2.42;;
57107;SDS011;42987;52.916;6.542;2023-07-31T09:08:33;5.55;;;3.15;;
57107;SDS011;42987;52.916;6.542;2023-07-31T09:11:02;4.88;;;2.90;;
57107;SDS011;42987;52.916;6.542;2023-07-31T09:13:31;3.88;;;2.75;;
57107;SDS011;42987;52.916;6.542;2023-07-31T09:15:57;4.00;;;2.03;;
57107;SDS011;42987;52.916;6.542;2023-07-31T09:18:23;5.82;;;2.22;;
57107;SDS011;42987;52.916;6.542;2023-07-31T09:23:27;2.78;;;1.85;;
57107;SDS011;42987;52.916;6.542;2023-07-31T09:26:06;2.90;;;1.90;;
57107;SDS011;42987;52.916;6.542;2023-07-31T09:28:31;2.80;;;1.80;;
57107;SDS011;42987;52.916;6.542;2023-07-31T09:30:57;2.70;;;1.75;;
57107;SDS011;42987;52.916;6.542;2023-07-31T09:33:23;3.08;;;1.83;;
57107;SDS011;42987;52.916;6.542;2023-07-31T09:35:49;2.15;;;1.55;;
57107;SDS011;42987;52.916;6.542;2023-07-31T09:38:15;2.75;;;1.80;;
57107;SDS011;42987;52.916;6.542;2023-07-31T09:40:45;2.90;;;1.75;;
57107;SDS011;42987;52.916;6.542;2023-07-31T09:43:13;2.72;;;1.50;;
57107;SDS011;42987;52.916;6.542;2023-07-31T09:45:43;2.85;;;1.50;;
57107;SDS011;42987;52.916;6.542;2023-07-31T09:48:17;1.98;;;1.60;;
57107;SDS011;42987;52.916;6.542;2023-07-31T09:50:47;2.72;;;1.50;;
57107;SDS011;42987;52.916;6.542;2023-07-31T09:55:40;1.80;;;1.40;;
57107;SDS011;42987;52.916;6.542;2023-07-31T09:58:09;3.28;;;1.67;;
57107;SDS011;42987;52.916;6.542;2023-07-31T10:00:36;2.40;;;1.50;;
57107;SDS011;42987;52.916;6.542;2023-07-31T10:03:09;3.47;;;1.90;;
57107;SDS011;42987;52.916;6.542;2023-07-31T10:05:42;2.13;;;1.63;;
57107;SDS011;42987;52.916;6.542;2023-07-31T10:08:14;2.10;;;1.90;;
57107;SDS011;42987;52.916;6.542;2023-07-31T10:10:41;2.33;;;1.75;;
57107;SDS011;42987;52.916;6.542;2023-07-31T10:13:08;3.80;;;1.83;;
57107;SDS011;42987;52.916;6.542;2023-07-31T10:15:34;3.45;;;2.05;;
57107;SDS011;42987;52.916;6.542;2023-07-31T10:18:01;4.10;;;2.00;;
57107;SDS011;42987;52.916;6.542;2023-07-31T10:20:27;2.15;;;1.70;;
57107;SDS011;42987;52.916;6.542;2023-07-31T10:22:55;3.72;;;2.17;;
57107;SDS011;42987;52.916;6.542;2023-07-31T10:25:22;3.20;;;2.00;;
57107;SDS011;42987;52.916;6.542;2023-07-31T10:27:48;2.10;;;1.88;;
57107;SDS011;42987;52.916;6.542;2023-07-31T10:30:17;2.58;;;1.98;;
57107;SDS011;42987;52.916;6.542;2023-07-31T10:32:45;2.65;;;1.80;;
57107;SDS011;42987;52.916;6.542;2023-07-31T10:35:17;4.75;;;2.38;;
57107;SDS011;42987;52.916;6.542;2023-07-31T10:37:43;3.35;;;2.40;;
57107;SDS011;42987;52.916;6.542;2023-07-31T10:40:15;4.43;;;3.20;;
57107;SDS011;42987;52.916;6.542;2023-07-31T10:42:46;3.45;;;2.90;;
57107;SDS011;42987;52.916;6.542;2023-07-31T10:45:53;2.95;;;2.50;;
57107;SDS011;42987;52.916;6.542;2023-07-31T10:48:14;4.10;;;2.47;;
57107;SDS011;42987;52.916;6.542;2023-07-31T10:56:07;1.90;;;1.40;;
57107;SDS011;42987;52.916;6.542;2023-07-31T10:58:35;1.60;;;1.42;;
57107;SDS011;42987;52.916;6.542;2023-07-31T11:01:03;1.40;;;1.20;;
57107;SDS011;42987;52.916;6.542;2023-07-31T11:06:11;1.48;;;1.27;;
57107;SDS011;42987;52.916;6.542;2023-07-31T11:08:47;1.10;;;0.75;;
57107;SDS011;42987;52.916;6.542;2023-07-31T11:11:15;2.50;;;1.38;;
57107;SDS011;42987;52.916;6.542;2023-07-31T11:13:44;0.90;;;0.80;;
57107;SDS011;42987;52.916;6.542;2023-07-31T11:16:23;0.70;;;0.60;;
57107;SDS011;42987;52.916;6.542;2023-07-31T11:18:50;1.92;;;0.82;;
57107;SDS011;42987;52.916;6.542;2023-07-31T11:21:17;1.10;;;0.80;;
57107;SDS011;42987;52.916;6.542;2023-07-31T11:23:48;3.03;;;1.10;;
57107;SDS011;42987;52.916;6.542;2023-07-31T11:26:16;2.80;;;1.63;;
57107;SDS011;42987;52.916;6.542;2023-07-31T11:28:43;3.90;;;1.90;;
57107;SDS011;42987;52.916;6.542;2023-07-31T11:31:11;2.45;;;1.70;;
57107;SDS011;42987;52.916;6.542;2023-07-31T11:33:40;2.53;;;1.88;;
57107;SDS011;42987;52.916;6.542;2023-07-31T11:36:06;4.82;;;1.67;;
57107;SDS011;42987;52.916;6.542;2023-07-31T11:38:39;5.22;;;2.10;;
57107;SDS011;42987;52.916;6.542;2023-07-31T11:41:04;4.00;;;2.10;;
57107;SDS011;42987;52.916;6.542;2023-07-31T11:43:30;4.32;;;2.20;;
57107;SDS011;42987;52.916;6.542;2023-07-31T11:46:00;4.57;;;2.45;;
57107;SDS011;42987;52.916;6.542;2023-07-31T11:48:32;8.48;;;3.28;;
57107;SDS011;42987;52.916;6.542;2023-07-31T11:51:05;5.50;;;3.08;;
57107;SDS011;42987;52.916;6.542;2023-07-31T11:53:51;4.72;;;3.33;;
57107;SDS011;42987;52.916;6.542;2023-07-31T11:56:19;6.50;;;3.25;;
57107;SDS011;42987;52.916;6.542;2023-07-31T11:58:47;8.52;;;4.47;;
57107;SDS011;42987;52.916;6.542;2023-07-31T12:01:17;3.83;;;2.50;;
57107;SDS011;42987;52.916;6.542;2023-07-31T12:03:45;3.10;;;1.45;;
57107;SDS011;42987;52.916;6.542;2023-07-31T12:06:12;5.03;;;1.50;;
57107;SDS011;42987;52.916;6.542;2023-07-31T12:08:38;2.88;;;1.02;;
57107;SDS011;42987;52.916;6.542;2023-07-31T12:11:04;2.67;;;1.17;;
57107;SDS011;42987;52.916;6.542;2023-07-31T12:13:32;2.88;;;1.02;;
57107;SDS011;42987;52.916;6.542;2023-07-31T12:16:00;3.63;;;1.08;;
57107;SDS011;42987;52.916;6.542;2023-07-31T12:18:29;1.80;;;1.00;;
57107;SDS011;42987;52.916;6.542;2023-07-31T12:21:06;2.38;;;1.08;;
57107;SDS011;42987;52.916;6.542;2023-07-31T12:23:34;4.18;;;1.15;;
57107;SDS011;42987;52.916;6.542;2023-07-31T12:26:05;2.85;;;1.20;;
57107;SDS011;42987;52.916;6.542;2023-07-31T12:31:21;4.35;;;2.45;;
57107;SDS011;42987;52.916;6.542;2023-07-31T12:33:48;3.90;;;1.77;;
57107;SDS011;42987;52.916;6.542;2023-07-31T12:36:16;3.80;;;2.33;;
57107;SDS011;42987;52.916;6.542;2023-07-31T12:38:42;3.78;;;1.65;;
57107;SDS011;42987;52.916;6.542;2023-07-31T12:41:09;2.38;;;1.48;;
57107;SDS011;42987;52.916;6.542;2023-07-31T12:43:35;3.95;;;2.00;;
57107;SDS011;42987;52.916;6.542;2023-07-31T12:46:04;7.78;;;2.28;;
57107;SDS011;42987;52.916;6.542;2023-07-31T12:48:33;3.67;;;1.95;;
57107;SDS011;42987;52.916;6.542;2023-07-31T12:50:59;4.28;;;2.35;;
57107;SDS011;42987;52.916;6.542;2023-07-31T12:53:25;4.25;;;1.90;;
57107;SDS011;42987;52.916;6.542;2023-07-31T12:55:51;3.63;;;1.85;;
57107;SDS011;42987;52.916;6.542;2023-07-31T12:58:16;3.22;;;1.65;;
57107;SDS011;42987;52.916;6.542;2023-07-31T13:00:42;4.95;;;2.25;;
57107;SDS011;42987;52.916;6.542;2023-07-31T13:03:08;4.55;;;2.30;;
57107;SDS011;42987;52.916;6.542;2023-07-31T13:05:34;3.17;;;2.13;;
57107;SDS011;42987;52.916;6.542;2023-07-31T13:08:00;3.95;;;2.05;;
57107;SDS011;42987;52.916;6.542;2023-07-31T13:10:26;5.63;;;2.60;;
57107;SDS011;42987;52.916;6.542;2023-07-31T13:12:53;4.53;;;2.25;;
57107;SDS011;42987;52.916;6.542;2023-07-31T13:15:20;6.93;;;2.75;;
57107;SDS011;42987;52.916;6.542;2023-07-31T13:17:46;5.07;;;2.22;;
57107;SDS011;42987;52.916;6.542;2023-07-31T13:20:12;6.53;;;3.35;;
57107;SDS011;42987;52.916;6.542;2023-07-31T13:22:38;5.90;;;3.28;;
57107;SDS011;42987;52.916;6.542;2023-07-31T13:25:04;9.45;;;4.50;;
57107;SDS011;42987;52.916;6.542;2023-07-31T13:27:31;5.22;;;3.08;;
57107;SDS011;42987;52.916;6.542;2023-07-31T13:29:57;7.35;;;3.90;;
57107;SDS011;42987;52.916;6.542;2023-07-31T13:32:22;13.23;;;5.47;;
57107;SDS011;42987;52.916;6.542;2023-07-31T13:34:48;8.13;;;3.78;;
57107;SDS011;42987;52.916;6.542;2023-07-31T13:37:14;8.00;;;4.25;;
57107;SDS011;42987;52.916;6.542;2023-07-31T13:39:40;9.88;;;4.65;;
57107;SDS011;42987;52.916;6.542;2023-07-31T13:42:07;9.43;;;4.10;;
57107;SDS011;42987;52.916;6.542;2023-07-31T13:44:37;10.23;;;4.50;;
57107;SDS011;42987;52.916;6.542;2023-07-31T13:47:06;12.85;;;5.03;;
57107;SDS011;42987;52.916;6.542;2023-07-31T13:49:35;8.32;;;4.40;;
57107;SDS011;42987;52.916;6.542;2023-07-31T13:52:03;10.02;;;4.30;;
57107;SDS011;42987;52.916;6.542;2023-07-31T13:54:30;12.52;;;5.00;;
57107;SDS011;42987;52.916;6.542;2023-07-31T13:56:55;11.23;;;4.57;;
57107;SDS011;42987;52.916;6.542;2023-07-31T13:59:21;12.50;;;5.20;;
57107;SDS011;42987;52.916;6.542;2023-07-31T14:01:47;12.75;;;4.38;;
57107;SDS011;42987;52.916;6.542;2023-07-31T14:04:13;12.93;;;5.45;;
57107;SDS011;42987;52.916;6.542;2023-07-31T14:06:39;9.45;;;4.18;;
57107;SDS011;42987;52.916;6.542;2023-07-31T14:09:05;10.55;;;4.70;;
57107;SDS011;42987;52.916;6.542;2023-07-31T14:11:31;10.95;;;4.65;;
57107;SDS011;42987;52.916;6.542;2023-07-31T14:13:57;10.32;;;4.35;;
57107;SDS011;42987;52.916;6.542;2023-07-31T14:16:23;10.73;;;4.85;;
57107;SDS011;42987;52.916;6.542;2023-07-31T14:18:49;10.15;;;4.47;;
57107;SDS011;42987;52.916;6.542;2023-07-31T14:21:15;11.95;;;4.93;;
57107;SDS011;42987;52.916;6.542;2023-07-31T14:23:41;8.98;;;5.00;;
57107;SDS011;42987;52.916;6.542;2023-07-31T14:26:07;8.32;;;4.55;;
57107;SDS011;42987;52.916;6.542;2023-07-31T14:28:33;8.30;;;4.22;;
57107;SDS011;42987;52.916;6.542;2023-07-31T14:30:59;7.28;;;4.57;;
57107;SDS011;42987;52.916;6.542;2023-07-31T14:33:25;9.52;;;4.35;;
57107;SDS011;42987;52.916;6.542;2023-07-31T14:35:51;7.55;;;4.15;;
57107;SDS011;42987;52.916;6.542;2023-07-31T14:38:17;9.10;;;4.55;;
57107;SDS011;42987;52.916;6.542;2023-07-31T14:40:43;10.60;;;4.65;;
57107;SDS011;42987;52.916;6.542;2023-07-31T14:43:08;12.10;;;4.57;;
57107;SDS011;42987;52.916;6.542;2023-07-31T14:45:34;10.63;;;5.03;;
57107;SDS011;42987;52.916;6.542;2023-07-31T14:48:00;9.32;;;4.38;;
57107;SDS011;42987;52.916;6.542;2023-07-31T14:50:26;10.82;;;4.60;;
57107;SDS011;42987;52.916;6.542;2023-07-31T14:52:52;12.77;;;4.78;;
57107;SDS011;42987;52.916;6.542;2023-07-31T14:55:18;8.73;;;4.70;;
57107;SDS011;42987;52.916;6.542;2023-07-31T14:57:44;8.40;;;4.53;;
57107;SDS011;42987;52.916;6.542;2023-07-31T15:00:10;9.82;;;4.25;;
57107;SDS011;42987;52.916;6.542;2023-07-31T15:02:37;8.20;;;4.10;;
57107;SDS011;42987;52.916;6.542;2023-07-31T15:05:06;9.88;;;4.00;;
57107;SDS011;42987;52.916;6.542;2023-07-31T15:07:35;8.90;;;4.00;;